sensor_id;sensor_type;location;lat;lon;timestamp;temperature;humidity
50606;DHT22;36557;53.572;10.170;2022-11-03T00:01:38;6.70;99.90
50606;DHT22;36557;53.572;10.170;2022-11-03T00:04:09;6.60;99.90
50606;DHT22;36557;53.572;10.170;2022-11-03T00:06:36;6.60;99.90
50606;DHT22;36557;53.572;10.170;2022-11-03T00:09:04;6.70;99.90
50606;DHT22;36557;53.572;10.170;2022-11-03T00:11:35;6.70;99.90
50606;DHT22;36557;53.572;10.170;2022-11-03T00:14:01;6.60;99.90
50606;DHT22;36557;53.572;10.170;2022-11-03T00:16:27;6.60;99.90
50606;DHT22;36557;53.572;10.170;2022-11-03T00:18:53;6.60;99.90
50606;DHT22;36557;53.572;10.170;2022-11-03T00:21:19;6.60;99.90
50606;DHT22;36557;53.572;10.170;2022-11-03T00:23:45;6.70;99.90
50606;DHT22;36557;53.572;10.170;2022-11-03T00:28:43;6.70;99.90
50606;DHT22;36557;53.572;10.170;2022-11-03T00:31:14;6.60;99.90
50606;DHT22;36557;53.572;10.170;2022-11-03T00:33:40;6.60;99.90
50606;DHT22;36557;53.572;10.170;2022-11-03T00:36:09;6.60;99.90
50606;DHT22;36557;53.572;10.170;2022-11-03T00:38:36;6.60;99.90
50606;DHT22;36557;53.572;10.170;2022-11-03T00:41:03;6.60;99.90
50606;DHT22;36557;53.572;10.170;2022-11-03T00:43:30;6.60;99.90
50606;DHT22;36557;53.572;10.170;2022-11-03T00:45:57;6.50;99.90
50606;DHT22;36557;53.572;10.170;2022-11-03T00:48:23;6.60;99.90
50606;DHT22;36557;53.572;10.170;2022-11-03T00:51:06;6.60;99.90
50606;DHT22;36557;53.572;10.170;2022-11-03T00:53:37;6.50;99.90
50606;DHT22;36557;53.572;10.170;2022-11-03T00:56:04;6.50;99.90
50606;DHT22;36557;53.572;10.170;2022-11-03T00:58:31;6.50;99.90
50606;DHT22;36557;53.572;10.170;2022-11-03T01:01:05;6.60;99.90
50606;DHT22;36557;53.572;10.170;2022-11-03T01:03:34;6.60;99.90
50606;DHT22;36557;53.572;10.170;2022-11-03T01:06:00;6.60;99.90
50606;DHT22;36557;53.572;10.170;2022-11-03T01:08:45;6.70;99.90
50606;DHT22;36557;53.572;10.170;2022-11-03T01:11:14;6.70;99.90
50606;DHT22;36557;53.572;10.170;2022-11-03T01:13:59;6.70;99.90
50606;DHT22;36557;53.572;10.170;2022-11-03T01:16:25;6.70;99.90
50606;DHT22;36557;53.572;10.170;2022-11-03T01:18:51;6.70;99.90
50606;DHT22;36557;53.572;10.170;2022-11-03T01:21:17;6.70;99.90
50606;DHT22;36557;53.572;10.170;2022-11-03T01:23:43;6.70;99.90
50606;DHT22;36557;53.572;10.170;2022-11-03T01:26:11;6.70;99.90
50606;DHT22;36557;53.572;10.170;2022-11-03T01:28:39;6.70;99.90
50606;DHT22;36557;53.572;10.170;2022-11-03T01:31:05;6.80;99.90
50606;DHT22;36557;53.572;10.170;2022-11-03T01:33:32;6.80;99.90
50606;DHT22;36557;53.572;10.170;2022-11-03T01:35:57;6.80;99.90
50606;DHT22;36557;53.572;10.170;2022-11-03T01:38:23;6.80;99.90
50606;DHT22;36557;53.572;10.170;2022-11-03T01:40:49;6.80;99.90
50606;DHT22;36557;53.572;10.170;2022-11-03T01:43:22;6.80;99.90
50606;DHT22;36557;53.572;10.170;2022-11-03T01:46:01;6.80;99.90
50606;DHT22;36557;53.572;10.170;2022-11-03T01:48:28;6.90;99.90
50606;DHT22;36557;53.572;10.170;2022-11-03T01:50:55;6.80;99.90
50606;DHT22;36557;53.572;10.170;2022-11-03T01:53:21;6.80;99.90
50606;DHT22;36557;53.572;10.170;2022-11-03T01:55:49;6.90;99.90
50606;DHT22;36557;53.572;10.170;2022-11-03T01:58:19;6.90;99.90
50606;DHT22;36557;53.572;10.170;2022-11-03T02:00:49;6.90;99.90
50606;DHT22;36557;53.572;10.170;2022-11-03T02:03:16;6.90;99.90
50606;DHT22;36557;53.572;10.170;2022-11-03T02:05:44;6.90;99.90
50606;DHT22;36557;53.572;10.170;2022-11-03T02:08:18;6.90;99.90
50606;DHT22;36557;53.572;10.170;2022-11-03T02:10:49;6.90;99.90
50606;DHT22;36557;53.572;10.170;2022-11-03T02:13:21;6.90;99.90
50606;DHT22;36557;53.572;10.170;2022-11-03T02:15:54;7.00;99.90
50606;DHT22;36557;53.572;10.170;2022-11-03T02:18:27;7.00;99.90
50606;DHT22;36557;53.572;10.170;2022-11-03T02:21:02;7.00;99.90
50606;DHT22;36557;53.572;10.170;2022-11-03T02:23:48;7.00;99.90
50606;DHT22;36557;53.572;10.170;2022-11-03T02:26:16;7.00;99.90
50606;DHT22;36557;53.572;10.170;2022-11-03T02:28:42;7.00;99.90
50606;DHT22;36557;53.572;10.170;2022-11-03T02:31:20;7.00;99.90
50606;DHT22;36557;53.572;10.170;2022-11-03T02:34:03;7.00;99.90
50606;DHT22;36557;53.572;10.170;2022-11-03T02:37:01;7.00;99.90
50606;DHT22;36557;53.572;10.170;2022-11-03T02:39:39;7.00;99.90
50606;DHT22;36557;53.572;10.170;2022-11-03T02:42:06;7.00;99.90
50606;DHT22;36557;53.572;10.170;2022-11-03T02:44:33;7.00;99.90
50606;DHT22;36557;53.572;10.170;2022-11-03T02:47:03;7.00;99.90
50606;DHT22;36557;53.572;10.170;2022-11-03T02:49:31;7.00;99.90
50606;DHT22;36557;53.572;10.170;2022-11-03T02:52:03;7.10;99.90
50606;DHT22;36557;53.572;10.170;2022-11-03T02:54:41;7.10;99.90
50606;DHT22;36557;53.572;10.170;2022-11-03T02:57:20;7.10;99.90
50606;DHT22;36557;53.572;10.170;2022-11-03T02:59:57;7.10;99.90
50606;DHT22;36557;53.572;10.170;2022-11-03T03:02:31;7.10;99.90
50606;DHT22;36557;53.572;10.170;2022-11-03T03:05:01;7.10;99.90
50606;DHT22;36557;53.572;10.170;2022-11-03T03:07:31;7.10;99.90
50606;DHT22;36557;53.572;10.170;2022-11-03T03:10:16;7.10;99.90
50606;DHT22;36557;53.572;10.170;2022-11-03T03:12:47;7.10;99.90
50606;DHT22;36557;53.572;10.170;2022-11-03T03:15:16;7.20;99.90
50606;DHT22;36557;53.572;10.170;2022-11-03T03:17:53;7.20;99.90
50606;DHT22;36557;53.572;10.170;2022-11-03T03:20:30;7.20;99.90
50606;DHT22;36557;53.572;10.170;2022-11-03T03:23:06;7.20;99.90
50606;DHT22;36557;53.572;10.170;2022-11-03T03:28:13;7.10;99.90
50606;DHT22;36557;53.572;10.170;2022-11-03T03:30:44;7.10;99.90
50606;DHT22;36557;53.572;10.170;2022-11-03T03:33:11;7.10;99.90
50606;DHT22;36557;53.572;10.170;2022-11-03T03:35:39;7.00;99.90
50606;DHT22;36557;53.572;10.170;2022-11-03T03:38:11;7.10;99.90
50606;DHT22;36557;53.572;10.170;2022-11-03T03:40:39;7.10;99.90
50606;DHT22;36557;53.572;10.170;2022-11-03T03:43:07;7.00;99.90
50606;DHT22;36557;53.572;10.170;2022-11-03T03:45:35;7.00;99.90
50606;DHT22;36557;53.572;10.170;2022-11-03T03:48:02;7.00;99.90
50606;DHT22;36557;53.572;10.170;2022-11-03T03:50:31;7.00;99.90
50606;DHT22;36557;53.572;10.170;2022-11-03T03:53:08;6.90;99.90
50606;DHT22;36557;53.572;10.170;2022-11-03T03:55:39;6.90;99.90
50606;DHT22;36557;53.572;10.170;2022-11-03T03:58:06;7.00;99.90
50606;DHT22;36557;53.572;10.170;2022-11-03T04:00:34;7.00;99.90
50606;DHT22;36557;53.572;10.170;2022-11-03T04:03:00;6.90;99.90
50606;DHT22;36557;53.572;10.170;2022-11-03T04:05:26;7.00;99.90
50606;DHT22;36557;53.572;10.170;2022-11-03T04:07:52;6.90;99.90
50606;DHT22;36557;53.572;10.170;2022-11-03T04:10:20;6.90;99.90
50606;DHT22;36557;53.572;10.170;2022-11-03T04:12:48;6.90;99.90
50606;DHT22;36557;53.572;10.170;2022-11-03T04:15:32;6.80;99.90
50606;DHT22;36557;53.572;10.170;2022-11-03T04:18:19;6.80;99.90
50606;DHT22;36557;53.572;10.170;2022-11-03T04:21:04;6.80;99.90
50606;DHT22;36557;53.572;10.170;2022-11-03T04:23:49;6.70;99.90
50606;DHT22;36557;53.572;10.170;2022-11-03T04:26:17;6.70;99.90
50606;DHT22;36557;53.572;10.170;2022-11-03T04:28:43;6.70;99.90
50606;DHT22;36557;53.572;10.170;2022-11-03T04:31:15;6.70;99.90
50606;DHT22;36557;53.572;10.170;2022-11-03T04:33:41;6.70;99.90
50606;DHT22;36557;53.572;10.170;2022-11-03T04:38:46;6.70;99.90
50606;DHT22;36557;53.572;10.170;2022-11-03T04:41:16;6.70;99.90
50606;DHT22;36557;53.572;10.170;2022-11-03T04:43:43;6.60;99.90
50606;DHT22;36557;53.572;10.170;2022-11-03T04:46:12;6.60;99.90
50606;DHT22;36557;53.572;10.170;2022-11-03T04:48:38;6.60;99.90
50606;DHT22;36557;53.572;10.170;2022-11-03T04:51:15;6.70;99.90
50606;DHT22;36557;53.572;10.170;2022-11-03T04:53:50;6.60;99.90
50606;DHT22;36557;53.572;10.170;2022-11-03T04:56:20;6.60;99.90
50606;DHT22;36557;53.572;10.170;2022-11-03T04:58:46;6.60;99.90
50606;DHT22;36557;53.572;10.170;2022-11-03T05:01:14;6.60;99.90
50606;DHT22;36557;53.572;10.170;2022-11-03T05:03:41;6.60;99.90
50606;DHT22;36557;53.572;10.170;2022-11-03T05:06:13;6.60;99.90
50606;DHT22;36557;53.572;10.170;2022-11-03T05:08:43;6.60;99.90
50606;DHT22;36557;53.572;10.170;2022-11-03T05:11:36;6.50;99.90
50606;DHT22;36557;53.572;10.170;2022-11-03T05:14:26;6.60;99.90
50606;DHT22;36557;53.572;10.170;2022-11-03T05:16:52;6.50;99.90
50606;DHT22;36557;53.572;10.170;2022-11-03T05:19:36;6.50;99.90
50606;DHT22;36557;53.572;10.170;2022-11-03T05:22:05;6.60;99.90
50606;DHT22;36557;53.572;10.170;2022-11-03T05:24:37;6.50;99.90
50606;DHT22;36557;53.572;10.170;2022-11-03T05:27:03;6.60;99.90
50606;DHT22;36557;53.572;10.170;2022-11-03T05:29:36;6.60;99.90
50606;DHT22;36557;53.572;10.170;2022-11-03T05:32:02;6.60;99.90
50606;DHT22;36557;53.572;10.170;2022-11-03T05:34:35;6.60;99.90
50606;DHT22;36557;53.572;10.170;2022-11-03T05:39:34;6.60;99.90
50606;DHT22;36557;53.572;10.170;2022-11-03T05:42:00;6.60;99.90
50606;DHT22;36557;53.572;10.170;2022-11-03T05:44:38;6.60;99.90
50606;DHT22;36557;53.572;10.170;2022-11-03T05:47:12;6.60;99.90
50606;DHT22;36557;53.572;10.170;2022-11-03T05:49:39;6.50;99.90
50606;DHT22;36557;53.572;10.170;2022-11-03T05:52:12;6.60;99.90
50606;DHT22;36557;53.572;10.170;2022-11-03T05:54:40;6.60;99.90
50606;DHT22;36557;53.572;10.170;2022-11-03T05:57:09;6.60;99.90
50606;DHT22;36557;53.572;10.170;2022-11-03T05:59:36;6.60;99.90
50606;DHT22;36557;53.572;10.170;2022-11-03T06:02:04;6.70;99.90
50606;DHT22;36557;53.572;10.170;2022-11-03T06:04:36;6.70;99.90
50606;DHT22;36557;53.572;10.170;2022-11-03T06:07:25;6.70;99.90
50606;DHT22;36557;53.572;10.170;2022-11-03T06:09:52;6.70;99.90
50606;DHT22;36557;53.572;10.170;2022-11-03T06:12:19;6.80;99.90
50606;DHT22;36557;53.572;10.170;2022-11-03T06:14:45;6.80;99.90
50606;DHT22;36557;53.572;10.170;2022-11-03T06:17:22;6.90;99.90
50606;DHT22;36557;53.572;10.170;2022-11-03T06:19:49;6.90;99.90
50606;DHT22;36557;53.572;10.170;2022-11-03T06:22:20;6.90;99.90
50606;DHT22;36557;53.572;10.170;2022-11-03T06:24:47;6.90;99.90
50606;DHT22;36557;53.572;10.170;2022-11-03T06:27:19;6.90;99.90
50606;DHT22;36557;53.572;10.170;2022-11-03T06:29:50;7.00;99.90
50606;DHT22;36557;53.572;10.170;2022-11-03T06:32:17;7.00;99.90
50606;DHT22;36557;53.572;10.170;2022-11-03T06:34:48;7.00;99.90
50606;DHT22;36557;53.572;10.170;2022-11-03T06:37:20;7.00;99.90
50606;DHT22;36557;53.572;10.170;2022-11-03T06:39:47;7.10;99.90
50606;DHT22;36557;53.572;10.170;2022-11-03T06:42:14;7.10;99.90
50606;DHT22;36557;53.572;10.170;2022-11-03T06:44:46;7.10;99.90
50606;DHT22;36557;53.572;10.170;2022-11-03T06:49:44;7.10;99.90
50606;DHT22;36557;53.572;10.170;2022-11-03T06:57:36;7.20;99.90
50606;DHT22;36557;53.572;10.170;2022-11-03T07:02:58;7.30;99.90
50606;DHT22;36557;53.572;10.170;2022-11-03T07:05:29;7.40;99.90
50606;DHT22;36557;53.572;10.170;2022-11-03T07:07:58;7.40;99.90
50606;DHT22;36557;53.572;10.170;2022-11-03T07:10:27;7.40;99.90
50606;DHT22;36557;53.572;10.170;2022-11-03T07:12:54;7.50;99.90
50606;DHT22;36557;53.572;10.170;2022-11-03T07:15:32;7.50;99.90
50606;DHT22;36557;53.572;10.170;2022-11-03T07:18:00;7.50;99.90
50606;DHT22;36557;53.572;10.170;2022-11-03T07:20:27;7.50;99.90
50606;DHT22;36557;53.572;10.170;2022-11-03T07:22:53;7.50;99.90
50606;DHT22;36557;53.572;10.170;2022-11-03T07:25:21;7.60;99.90
50606;DHT22;36557;53.572;10.170;2022-11-03T07:27:51;7.70;99.90
50606;DHT22;36557;53.572;10.170;2022-11-03T07:30:21;7.70;99.90
50606;DHT22;36557;53.572;10.170;2022-11-03T07:32:51;7.80;99.90
50606;DHT22;36557;53.572;10.170;2022-11-03T07:37:47;7.80;99.90
50606;DHT22;36557;53.572;10.170;2022-11-03T07:40:18;7.90;99.90
50606;DHT22;36557;53.572;10.170;2022-11-03T07:42:45;7.90;99.90
50606;DHT22;36557;53.572;10.170;2022-11-03T07:45:32;7.90;99.90
50606;DHT22;36557;53.572;10.170;2022-11-03T07:51:04;7.90;99.90
50606;DHT22;36557;53.572;10.170;2022-11-03T07:53:44;8.00;99.90
50606;DHT22;36557;53.572;10.170;2022-11-03T07:56:37;8.00;99.90
50606;DHT22;36557;53.572;10.170;2022-11-03T07:59:25;8.10;99.90
50606;DHT22;36557;53.572;10.170;2022-11-03T08:01:53;8.10;99.90
50606;DHT22;36557;53.572;10.170;2022-11-03T08:04:35;8.20;99.90
50606;DHT22;36557;53.572;10.170;2022-11-03T08:07:01;8.20;99.90
50606;DHT22;36557;53.572;10.170;2022-11-03T08:09:26;8.20;99.90
50606;DHT22;36557;53.572;10.170;2022-11-03T08:11:52;8.30;99.90
50606;DHT22;36557;53.572;10.170;2022-11-03T08:14:18;8.30;99.90
50606;DHT22;36557;53.572;10.170;2022-11-03T08:16:44;8.40;99.90
50606;DHT22;36557;53.572;10.170;2022-11-03T08:19:10;8.50;99.90
50606;DHT22;36557;53.572;10.170;2022-11-03T08:21:36;8.50;99.90
50606;DHT22;36557;53.572;10.170;2022-11-03T08:24:03;8.50;99.90
50606;DHT22;36557;53.572;10.170;2022-11-03T08:26:29;8.60;99.90
50606;DHT22;36557;53.572;10.170;2022-11-03T08:28:55;8.70;99.90
50606;DHT22;36557;53.572;10.170;2022-11-03T08:31:20;8.70;99.90
50606;DHT22;36557;53.572;10.170;2022-11-03T08:33:57;8.80;99.90
50606;DHT22;36557;53.572;10.170;2022-11-03T08:36:23;8.90;99.90
50606;DHT22;36557;53.572;10.170;2022-11-03T08:38:48;8.90;99.90
50606;DHT22;36557;53.572;10.170;2022-11-03T08:41:14;9.00;99.90
50606;DHT22;36557;53.572;10.170;2022-11-03T08:43:40;9.10;99.90
50606;DHT22;36557;53.572;10.170;2022-11-03T08:46:05;9.20;99.90
50606;DHT22;36557;53.572;10.170;2022-11-03T08:48:31;9.30;99.90
50606;DHT22;36557;53.572;10.170;2022-11-03T08:50:57;9.30;99.90
50606;DHT22;36557;53.572;10.170;2022-11-03T08:53:26;9.30;99.90
50606;DHT22;36557;53.572;10.170;2022-11-03T08:55:55;9.40;99.90
50606;DHT22;36557;53.572;10.170;2022-11-03T08:58:21;9.50;99.90
50606;DHT22;36557;53.572;10.170;2022-11-03T09:00:48;9.50;99.90
50606;DHT22;36557;53.572;10.170;2022-11-03T09:03:14;9.60;99.90
50606;DHT22;36557;53.572;10.170;2022-11-03T09:05:40;9.60;99.90
50606;DHT22;36557;53.572;10.170;2022-11-03T09:08:05;9.70;99.90
50606;DHT22;36557;53.572;10.170;2022-11-03T09:10:32;9.80;99.90
50606;DHT22;36557;53.572;10.170;2022-11-03T09:12:58;9.80;99.90
50606;DHT22;36557;53.572;10.170;2022-11-03T09:15:23;9.90;99.90
50606;DHT22;36557;53.572;10.170;2022-11-03T09:17:49;9.90;99.90
50606;DHT22;36557;53.572;10.170;2022-11-03T09:20:15;9.90;99.90
50606;DHT22;36557;53.572;10.170;2022-11-03T09:22:41;9.90;99.90
50606;DHT22;36557;53.572;10.170;2022-11-03T09:25:07;10.00;99.90
50606;DHT22;36557;53.572;10.170;2022-11-03T09:27:33;10.10;99.90
50606;DHT22;36557;53.572;10.170;2022-11-03T09:29:58;10.10;99.90
50606;DHT22;36557;53.572;10.170;2022-11-03T09:32:25;10.10;99.90
50606;DHT22;36557;53.572;10.170;2022-11-03T09:34:50;10.20;99.90
50606;DHT22;36557;53.572;10.170;2022-11-03T09:37:16;10.20;99.90
50606;DHT22;36557;53.572;10.170;2022-11-03T09:39:42;10.20;99.90
50606;DHT22;36557;53.572;10.170;2022-11-03T09:42:10;10.40;99.90
50606;DHT22;36557;53.572;10.170;2022-11-03T09:44:37;10.40;99.90
50606;DHT22;36557;53.572;10.170;2022-11-03T09:47:04;10.60;99.90
50606;DHT22;36557;53.572;10.170;2022-11-03T09:49:31;10.60;99.90
50606;DHT22;36557;53.572;10.170;2022-11-03T09:51:57;10.80;99.90
50606;DHT22;36557;53.572;10.170;2022-11-03T09:54:25;10.80;99.90
50606;DHT22;36557;53.572;10.170;2022-11-03T09:56:51;10.80;99.90
50606;DHT22;36557;53.572;10.170;2022-11-03T09:59:19;10.90;99.90
50606;DHT22;36557;53.572;10.170;2022-11-03T10:01:46;11.10;99.90
50606;DHT22;36557;53.572;10.170;2022-11-03T10:04:15;11.10;99.90
50606;DHT22;36557;53.572;10.170;2022-11-03T10:06:42;11.20;99.90
50606;DHT22;36557;53.572;10.170;2022-11-03T10:09:16;11.30;99.90
50606;DHT22;36557;53.572;10.170;2022-11-03T10:11:44;11.40;99.90
50606;DHT22;36557;53.572;10.170;2022-11-03T10:14:12;11.60;99.90
50606;DHT22;36557;53.572;10.170;2022-11-03T10:16:40;11.60;99.90
50606;DHT22;36557;53.572;10.170;2022-11-03T10:19:11;11.70;99.90
50606;DHT22;36557;53.572;10.170;2022-11-03T10:21:39;11.80;99.90
50606;DHT22;36557;53.572;10.170;2022-11-03T10:24:15;12.00;99.90
50606;DHT22;36557;53.572;10.170;2022-11-03T10:26:47;12.00;99.90
50606;DHT22;36557;53.572;10.170;2022-11-03T10:29:24;12.10;99.90
50606;DHT22;36557;53.572;10.170;2022-11-03T10:31:52;12.10;99.90
50606;DHT22;36557;53.572;10.170;2022-11-03T10:34:36;12.20;99.90
50606;DHT22;36557;53.572;10.170;2022-11-03T10:39:36;12.30;99.90
50606;DHT22;36557;53.572;10.170;2022-11-03T10:42:02;12.20;99.90
50606;DHT22;36557;53.572;10.170;2022-11-03T10:44:29;12.20;99.90
50606;DHT22;36557;53.572;10.170;2022-11-03T10:47:03;12.30;99.90
50606;DHT22;36557;53.572;10.170;2022-11-03T10:49:30;12.20;99.90
50606;DHT22;36557;53.572;10.170;2022-11-03T10:52:13;12.30;99.90
50606;DHT22;36557;53.572;10.170;2022-11-03T10:54:41;12.30;99.90
50606;DHT22;36557;53.572;10.170;2022-11-03T10:57:07;12.40;99.90
50606;DHT22;36557;53.572;10.170;2022-11-03T10:59:35;12.50;99.90
50606;DHT22;36557;53.572;10.170;2022-11-03T11:02:07;12.60;99.90
50606;DHT22;36557;53.572;10.170;2022-11-03T11:04:35;12.70;99.90
50606;DHT22;36557;53.572;10.170;2022-11-03T11:07:01;12.70;99.90
50606;DHT22;36557;53.572;10.170;2022-11-03T11:09:27;12.90;99.90
50606;DHT22;36557;53.572;10.170;2022-11-03T11:19:16;13.10;99.90
50606;DHT22;36557;53.572;10.170;2022-11-03T11:24:10;13.00;99.90
50606;DHT22;36557;53.572;10.170;2022-11-03T11:26:37;13.10;99.90
50606;DHT22;36557;53.572;10.170;2022-11-03T11:31:39;13.10;99.90
50606;DHT22;36557;53.572;10.170;2022-11-03T11:42:16;13.30;99.90
50606;DHT22;36557;53.572;10.170;2022-11-03T11:52:59;13.30;99.90
50606;DHT22;36557;53.572;10.170;2022-11-03T11:58:47;13.30;99.90
50606;DHT22;36557;53.572;10.170;2022-11-03T12:01:22;13.30;99.90
50606;DHT22;36557;53.572;10.170;2022-11-03T12:03:52;13.40;99.90
50606;DHT22;36557;53.572;10.170;2022-11-03T12:06:34;13.40;99.90
50606;DHT22;36557;53.572;10.170;2022-11-03T12:09:14;13.50;99.90
50606;DHT22;36557;53.572;10.170;2022-11-03T12:19:46;13.60;99.90
50606;DHT22;36557;53.572;10.170;2022-11-03T12:22:38;13.50;99.90
50606;DHT22;36557;53.572;10.170;2022-11-03T12:25:05;13.50;99.90
50606;DHT22;36557;53.572;10.170;2022-11-03T12:30:00;13.50;99.90
50606;DHT22;36557;53.572;10.170;2022-11-03T12:32:29;13.50;99.90
50606;DHT22;36557;53.572;10.170;2022-11-03T12:34:55;13.50;99.90
50606;DHT22;36557;53.572;10.170;2022-11-03T12:37:21;13.50;99.90
50606;DHT22;36557;53.572;10.170;2022-11-03T12:39:47;13.60;99.90
50606;DHT22;36557;53.572;10.170;2022-11-03T12:42:13;13.60;99.90
50606;DHT22;36557;53.572;10.170;2022-11-03T12:44:39;13.70;99.90
50606;DHT22;36557;53.572;10.170;2022-11-03T12:47:05;13.80;99.90
50606;DHT22;36557;53.572;10.170;2022-11-03T12:49:30;13.80;99.90
50606;DHT22;36557;53.572;10.170;2022-11-03T12:51:56;13.80;99.90
50606;DHT22;36557;53.572;10.170;2022-11-03T12:54:30;13.80;99.90
50606;DHT22;36557;53.572;10.170;2022-11-03T12:56:55;13.80;99.90
50606;DHT22;36557;53.572;10.170;2022-11-03T12:59:21;13.70;99.90
50606;DHT22;36557;53.572;10.170;2022-11-03T13:01:47;13.70;99.90
50606;DHT22;36557;53.572;10.170;2022-11-03T13:04:12;13.60;99.90
50606;DHT22;36557;53.572;10.170;2022-11-03T13:06:38;13.60;99.90
50606;DHT22;36557;53.572;10.170;2022-11-03T13:09:04;13.50;99.90
50606;DHT22;36557;53.572;10.170;2022-11-03T13:11:30;13.40;99.90
50606;DHT22;36557;53.572;10.170;2022-11-03T13:14:16;13.40;99.90
50606;DHT22;36557;53.572;10.170;2022-11-03T13:16:41;13.40;99.90
50606;DHT22;36557;53.572;10.170;2022-11-03T13:19:07;13.40;99.90
50606;DHT22;36557;53.572;10.170;2022-11-03T13:21:35;13.30;99.90
50606;DHT22;36557;53.572;10.170;2022-11-03T13:24:01;13.30;99.90
50606;DHT22;36557;53.572;10.170;2022-11-03T13:26:27;13.30;99.90
50606;DHT22;36557;53.572;10.170;2022-11-03T13:28:52;13.20;99.90
50606;DHT22;36557;53.572;10.170;2022-11-03T13:31:18;13.20;99.90
50606;DHT22;36557;53.572;10.170;2022-11-03T13:33:44;13.20;99.90
50606;DHT22;36557;53.572;10.170;2022-11-03T13:36:10;13.20;99.90
50606;DHT22;36557;53.572;10.170;2022-11-03T13:38:35;13.20;99.90
50606;DHT22;36557;53.572;10.170;2022-11-03T13:41:01;13.20;99.90
50606;DHT22;36557;53.572;10.170;2022-11-03T13:43:27;13.20;99.90
50606;DHT22;36557;53.572;10.170;2022-11-03T13:45:53;13.20;99.90
50606;DHT22;36557;53.572;10.170;2022-11-03T13:48:19;13.10;99.90
50606;DHT22;36557;53.572;10.170;2022-11-03T13:50:45;13.20;99.90
50606;DHT22;36557;53.572;10.170;2022-11-03T13:53:11;13.10;99.90
50606;DHT22;36557;53.572;10.170;2022-11-03T13:55:36;13.00;99.90
50606;DHT22;36557;53.572;10.170;2022-11-03T13:58:02;13.00;99.90
50606;DHT22;36557;53.572;10.170;2022-11-03T14:00:28;12.90;99.90
50606;DHT22;36557;53.572;10.170;2022-11-03T14:02:53;12.90;99.90
50606;DHT22;36557;53.572;10.170;2022-11-03T14:05:19;12.90;99.90
50606;DHT22;36557;53.572;10.170;2022-11-03T14:07:45;12.80;99.90
50606;DHT22;36557;53.572;10.170;2022-11-03T14:10:11;12.80;99.90
50606;DHT22;36557;53.572;10.170;2022-11-03T14:12:36;12.70;99.90
50606;DHT22;36557;53.572;10.170;2022-11-03T14:15:08;12.70;99.90
50606;DHT22;36557;53.572;10.170;2022-11-03T14:17:36;12.70;99.90
50606;DHT22;36557;53.572;10.170;2022-11-03T14:20:02;12.60;99.90
50606;DHT22;36557;53.572;10.170;2022-11-03T14:22:28;12.60;99.90
50606;DHT22;36557;53.572;10.170;2022-11-03T14:24:57;12.60;99.90
50606;DHT22;36557;53.572;10.170;2022-11-03T14:27:23;12.60;99.90
50606;DHT22;36557;53.572;10.170;2022-11-03T14:29:49;12.60;99.90
50606;DHT22;36557;53.572;10.170;2022-11-03T14:32:16;12.60;99.90
50606;DHT22;36557;53.572;10.170;2022-11-03T14:34:42;12.50;99.90
50606;DHT22;36557;53.572;10.170;2022-11-03T14:37:11;12.50;99.90
50606;DHT22;36557;53.572;10.170;2022-11-03T14:39:38;12.50;99.90
50606;DHT22;36557;53.572;10.170;2022-11-03T14:42:04;12.50;99.90
50606;DHT22;36557;53.572;10.170;2022-11-03T14:44:36;12.50;99.90
50606;DHT22;36557;53.572;10.170;2022-11-03T14:47:04;12.40;99.90
50606;DHT22;36557;53.572;10.170;2022-11-03T14:49:31;12.50;99.90
50606;DHT22;36557;53.572;10.170;2022-11-03T14:51:58;12.50;99.90
50606;DHT22;36557;53.572;10.170;2022-11-03T14:54:24;12.40;99.90
50606;DHT22;36557;53.572;10.170;2022-11-03T14:56:51;12.50;99.90
50606;DHT22;36557;53.572;10.170;2022-11-03T14:59:17;12.40;99.90
50606;DHT22;36557;53.572;10.170;2022-11-03T15:01:43;12.40;99.90
50606;DHT22;36557;53.572;10.170;2022-11-03T15:04:09;12.30;99.90
50606;DHT22;36557;53.572;10.170;2022-11-03T15:06:36;12.30;99.90
50606;DHT22;36557;53.572;10.170;2022-11-03T15:09:02;12.30;99.90
50606;DHT22;36557;53.572;10.170;2022-11-03T15:11:29;12.30;99.90
50606;DHT22;36557;53.572;10.170;2022-11-03T15:13:55;12.30;99.90
50606;DHT22;36557;53.572;10.170;2022-11-03T15:16:21;12.30;99.90
50606;DHT22;36557;53.572;10.170;2022-11-03T15:18:47;12.20;99.90
50606;DHT22;36557;53.572;10.170;2022-11-03T15:21:14;12.20;99.90
50606;DHT22;36557;53.572;10.170;2022-11-03T15:23:40;12.20;99.90
50606;DHT22;36557;53.572;10.170;2022-11-03T15:26:05;12.20;99.90
50606;DHT22;36557;53.572;10.170;2022-11-03T15:28:31;12.10;99.90
50606;DHT22;36557;53.572;10.170;2022-11-03T15:30:57;12.10;99.90
50606;DHT22;36557;53.572;10.170;2022-11-03T15:33:23;12.10;99.90
50606;DHT22;36557;53.572;10.170;2022-11-03T15:35:49;12.00;99.90
50606;DHT22;36557;53.572;10.170;2022-11-03T15:38:15;12.00;99.90
50606;DHT22;36557;53.572;10.170;2022-11-03T15:40:41;12.00;99.90
50606;DHT22;36557;53.572;10.170;2022-11-03T15:43:07;11.90;99.90
50606;DHT22;36557;53.572;10.170;2022-11-03T15:45:33;11.90;99.90
50606;DHT22;36557;53.572;10.170;2022-11-03T15:48:00;11.80;99.90
50606;DHT22;36557;53.572;10.170;2022-11-03T15:50:26;11.80;99.90
50606;DHT22;36557;53.572;10.170;2022-11-03T15:52:53;11.80;99.90
50606;DHT22;36557;53.572;10.170;2022-11-03T15:55:18;11.80;99.90
50606;DHT22;36557;53.572;10.170;2022-11-03T15:57:46;11.80;99.90
50606;DHT22;36557;53.572;10.170;2022-11-03T16:00:12;11.80;99.90
50606;DHT22;36557;53.572;10.170;2022-11-03T16:02:38;11.80;99.90
50606;DHT22;36557;53.572;10.170;2022-11-03T16:05:04;11.70;99.90
50606;DHT22;36557;53.572;10.170;2022-11-03T16:07:30;11.70;99.90
50606;DHT22;36557;53.572;10.170;2022-11-03T16:09:56;11.70;99.90
50606;DHT22;36557;53.572;10.170;2022-11-03T16:12:22;11.60;99.90
50606;DHT22;36557;53.572;10.170;2022-11-03T16:14:49;11.60;99.90
50606;DHT22;36557;53.572;10.170;2022-11-03T16:17:15;11.60;99.90
50606;DHT22;36557;53.572;10.170;2022-11-03T16:19:41;11.60;99.90
50606;DHT22;36557;53.572;10.170;2022-11-03T16:22:06;11.60;99.90
50606;DHT22;36557;53.572;10.170;2022-11-03T16:24:32;11.60;99.90
50606;DHT22;36557;53.572;10.170;2022-11-03T16:26:58;11.60;99.90
50606;DHT22;36557;53.572;10.170;2022-11-03T16:29:24;11.50;99.90
50606;DHT22;36557;53.572;10.170;2022-11-03T16:31:49;11.50;99.90
50606;DHT22;36557;53.572;10.170;2022-11-03T16:34:16;11.50;99.90
50606;DHT22;36557;53.572;10.170;2022-11-03T16:36:42;11.50;99.90
50606;DHT22;36557;53.572;10.170;2022-11-03T16:39:08;11.40;99.90
50606;DHT22;36557;53.572;10.170;2022-11-03T16:41:35;11.50;99.90
50606;DHT22;36557;53.572;10.170;2022-11-03T16:44:01;11.40;99.90
50606;DHT22;36557;53.572;10.170;2022-11-03T16:46:27;11.40;99.90
50606;DHT22;36557;53.572;10.170;2022-11-03T16:48:52;11.40;99.90